Oklahoma City, OK (73128)

9:31 PM CDT on August 20, 2014 (GMT -0500)
Musgrave-Pennington | Change Station
CLOSE
Current Station
Personal Weather Station
Location: Oklahoma City, OK
Elevation: 1286 ft
Nearby Weather Stations

Elev 1286 ft 35.49 °N, 97.59 °W | Updated 1 minute ago

Clear
Clear
87.1 °F
Feels Like 90 °F
N
1.7
Wind Variable Wind from WNW
Gusts 6.0 mph

Today
High -- | Low -- °F
--% Chance of Precip.
Yesterday
High -- | Low -- °F
Precip. -- in
6:53 AM 8:13 PM
Waning Crescent, 17% visible
Pressure 29.83 in
Visibility 10.0 miles
Clouds Clear
Heat Index 90 °F
Dew Point 67 °F
Humidity 51%
Rainfall 0.00 in
Snow Depth Not available.
UV 0 out of 12
Pollen 9.70 out of 12
Ozone Good
PM2.5 Moderate
Flu Activity Not available.
METAR KOKC 210152Z 16014KT 10SM CLR 30/18 A2988 RMK AO2 SLP100 T03000183 $

More Conditions Fewer Conditions

Pressure 29.83 in
Visibility 10.0 miles
Clouds Clear
Heat Index 90 °F
Dew Point 67 °F
Humidity 51%
Rainfall 0.00 in
Snow Depth Not available.
UV 0 out of 12
Pollen 9.70 out of 12
Ozone Good
PM2.5 Moderate
Flu Activity Not available.
METAR KOKC 210152Z 16014KT 10SM CLR 30/18 A2988 RMK AO2 SLP100 T03000183 $

More Conditions Fewer Conditions

10-Day Weather Forecast

Almanac

Astronomy

Aug. 20, 2014 Rise Set
Actual Time 6:53 AM CDT 8:13 PM CDT
Civil Twilight 6:27 AM CDT 8:39 PM CDT
Nautical Twilight 5:55 AM CDT 9:11 PM CDT
Astronomical Twilight 5:21 AM CDT 9:44 PM CDT
Moon 2:38 AM CDT (8/20) 4:55 PM CDT (8/20)
Length of Visible Light 14h 12m
Length of Day
13h 19m
Tomorrow will be 2m 1s shorter.
Waning Crescent, 17% of the Moon is Illuminated
Today
Waning Crescent
Aug 25
New
Sep 2
First Quarter
Sep 8
Full
Sep 15
Last Quarter

Today's Extremes

State Highs State Lows

Community

WunderPhotos

Upload Photos

1,745,838 photos uploaded!

WunderBlogs® & News

By Dr. Jeff Masters
Director of Meteorology, Weather Underground
By Kari Strenfel
Meteorologist, Weather Underground
By Christopher C. Burt
Weather Historian, Weather Underground
August 20, 2014
August 20, 2014
August 20, 2014

Nearby

Air Quality

  Air Quality AQ Index Pollutant
Yesterday Good
OZONE
Yesterday Good
PM2.5
Current Moderate
PM2.5
Current Good
OZONE
Wednesday Moderate
PM2.5
Wednesday Good
OZONE
Thursday Moderate
PM2.5
Thursday Good
OZONE
Friday Moderate
PM2.5
Friday Good
OZONE
Saturday Moderate
PM2.5
Saturday Good
OZONE
Sunday Moderate
PM2.5
Sunday Good
OZONE
Monday Moderate
PM2.5
Monday Good
OZONE

Snow Depth

Station Depth Elevation
No new snow has been reported.

Earthquake Activity

City Distance Mag. Time & Date
Medford, Oklahoma 96 miles 3.4 5:54 AM CDT
2014-08-16
Medford, Oklahoma 94 miles 2.5 7:09 AM CDT
2014-08-15
Langston, Oklahoma 39 miles 2.9 9:49 PM CDT
2014-08-14
Perry, Oklahoma 67 miles 2.7 6:20 PM CDT
2014-08-14
Minimum magnitude displayed is 2.5.

Coastal Water Temperatures

Place Temperature
No Stations Reporting

Nearby Weather Stations